createdAt,value
2023-02-25T04:45:54.046Z,4.70
2023-02-25T04:48:24.153Z,4.90
2023-02-25T04:50:50.799Z,4.90
2023-02-25T04:53:17.381Z,5.00
2023-02-25T04:55:43.912Z,4.90
2023-02-25T04:58:13.030Z,4.90
2023-02-25T05:00:47.466Z,4.80
2023-02-25T05:03:14.406Z,5.10
2023-02-25T05:05:43.120Z,5.10
2023-02-25T05:08:09.669Z,5.00
2023-02-25T05:10:36.222Z,5.00
2023-02-25T05:13:02.824Z,5.00
2023-02-25T05:15:29.413Z,5.00
2023-02-25T05:17:55.956Z,5.00
2023-02-25T05:20:24.996Z,5.00
2023-02-25T05:22:54.107Z,5.00
2023-02-25T05:25:20.697Z,5.00
2023-02-25T05:27:47.574Z,4.70
2023-02-25T05:30:14.406Z,4.80
2023-02-25T05:32:41.032Z,4.90
2023-02-25T05:35:11.947Z,4.90
2023-02-25T05:37:38.619Z,4.80
2023-02-25T05:40:07.023Z,4.90
2023-02-25T05:42:33.593Z,4.80
2023-02-25T05:45:00.159Z,4.80
2023-02-25T05:47:27.177Z,4.80
2023-02-25T05:49:53.715Z,4.80
2023-02-25T05:52:20.318Z,4.90
2023-02-25T05:54:48.268Z,4.70
2023-02-25T05:57:14.812Z,4.80
2023-02-25T05:59:41.413Z,4.80
2023-02-25T06:02:08.039Z,5.00
2023-02-25T06:04:34.665Z,4.60
2023-02-25T06:07:03.188Z,4.90
2023-02-25T06:09:29.796Z,4.90
2023-02-25T06:11:56.396Z,4.70
2023-02-25T06:14:23.005Z,4.70
2023-02-25T06:16:51.336Z,4.80
2023-02-25T06:19:18.058Z,4.80
2023-02-25T06:21:44.617Z,4.70
2023-02-25T06:24:11.187Z,4.70
2023-02-25T06:26:41.748Z,4.60
2023-02-25T06:29:09.336Z,4.80
2023-02-25T06:31:35.970Z,4.80
2023-02-25T06:34:02.937Z,4.70
2023-02-25T06:36:32.015Z,4.70
2023-02-25T06:38:59.081Z,4.60
2023-02-25T06:41:26.069Z,4.70
2023-02-25T06:43:52.819Z,4.70
2023-02-25T06:46:20.860Z,4.60
2023-02-25T06:48:47.533Z,4.70
2023-02-25T06:51:14.447Z,4.70
2023-02-25T06:53:44.456Z,4.70
2023-02-25T06:56:12.623Z,4.50
2023-02-25T06:58:39.461Z,4.60
2023-02-25T07:01:14.422Z,4.70
2023-02-25T07:03:41.721Z,4.70
2023-02-25T07:06:08.858Z,4.80
2023-02-25T07:08:35.465Z,4.80
2023-02-25T07:11:35.796Z,4.80
2023-02-25T07:14:05.976Z,4.60
2023-02-25T07:16:34.293Z,4.90
2023-02-25T07:19:04.079Z,4.80
2023-02-25T07:21:31.028Z,5.00
2023-02-25T07:23:57.873Z,4.90
2023-02-25T07:26:28.189Z,4.80
2023-02-25T07:28:58.217Z,5.00
2023-02-25T07:31:25.953Z,5.00
2023-02-25T07:33:54.553Z,5.00
2023-02-25T07:36:21.509Z,5.00
2023-02-25T07:38:51.128Z,5.10
2023-02-25T07:41:21.939Z,5.20
2023-02-25T07:43:49.009Z,5.00
2023-02-25T07:46:15.588Z,5.00
2023-02-25T07:48:42.220Z,4.90
2023-02-25T07:51:12.975Z,5.00
2023-02-25T07:53:39.794Z,4.90
2023-02-25T07:56:07.044Z,5.00
2023-02-25T07:58:33.881Z,5.00
2023-02-25T08:01:06.717Z,5.20
2023-02-25T08:03:33.301Z,5.20
2023-02-25T08:06:02.594Z,5.20
2023-02-25T08:08:29.206Z,5.20
2023-02-25T08:10:55.768Z,5.00
2023-02-25T08:13:24.474Z,5.20
2023-02-25T08:15:51.109Z,5.10
2023-02-25T08:18:17.700Z,5.20
2023-02-25T08:20:47.699Z,5.30
2023-02-25T08:23:14.353Z,5.30
2023-02-25T08:25:40.980Z,5.40
2023-02-25T08:28:07.539Z,5.30
2023-02-25T08:30:38.802Z,5.40
2023-02-25T08:33:07.538Z,5.40
2023-02-25T08:35:34.369Z,5.40
2023-02-25T08:38:01.349Z,5.40
2023-02-25T08:40:27.922Z,5.50
2023-02-25T08:42:57.067Z,5.40
2023-02-25T08:45:26.135Z,5.40
2023-02-25T08:47:55.090Z,5.40
2023-02-25T08:50:23.968Z,5.40
2023-02-25T08:52:50.792Z,5.40
2023-02-25T08:55:18.169Z,5.60
2023-02-25T08:57:45.129Z,5.40
2023-02-25T09:00:15.697Z,5.40
2023-02-25T09:02:42.327Z,5.40
2023-02-25T09:05:09.536Z,5.50
2023-02-25T09:07:36.337Z,5.50
2023-02-25T09:10:10.130Z,5.60
2023-02-25T09:12:39.702Z,5.50
2023-02-25T09:15:07.379Z,5.40
2023-02-25T09:17:33.917Z,5.40
2023-02-25T09:20:01.340Z,5.60
2023-02-25T09:22:33.069Z,5.60
2023-02-25T09:24:59.759Z,5.50
2023-02-25T09:27:26.353Z,5.50
2023-02-25T09:29:53.078Z,5.40
2023-02-25T09:32:20.530Z,5.50
2023-02-25T09:34:49.122Z,5.30
2023-02-25T09:37:16.621Z,5.60
2023-02-25T09:39:43.197Z,5.60
2023-02-25T09:42:11.278Z,5.50
2023-02-25T09:44:43.237Z,5.60
2023-02-25T09:47:13.037Z,5.50
2023-02-25T09:49:46.251Z,5.60
2023-02-25T09:52:13.567Z,5.60
2023-02-25T09:54:44.816Z,5.50
2023-02-25T09:57:19.118Z,5.50
2023-02-25T09:59:46.385Z,5.60
2023-02-25T10:02:12.965Z,5.50
2023-02-25T10:05:06.086Z,5.20
2023-02-25T10:07:35.731Z,4.70
2023-02-25T10:10:22.566Z,4.80
2023-02-25T10:12:49.108Z,4.40
2023-02-25T10:15:34.318Z,4.60
2023-02-25T10:18:24.173Z,4.50
2023-02-25T10:21:11.464Z,4.40
2023-02-25T10:23:43.922Z,4.30
2023-02-25T10:26:22.257Z,4.40
2023-02-25T10:28:55.056Z,4.50
2023-02-25T10:31:25.177Z,4.20
2023-02-25T10:33:53.679Z,4.50
2023-02-25T10:36:39.481Z,4.70
2023-02-25T10:39:06.278Z,4.90
2023-02-25T10:41:32.851Z,4.80
2023-02-25T10:43:59.413Z,4.50
2023-02-25T10:46:25.980Z,4.50
2023-02-25T10:49:00.114Z,4.70
2023-02-25T10:51:30.196Z,4.70
2023-02-25T10:53:56.715Z,4.80
2023-02-25T10:56:43.214Z,4.90
2023-02-25T10:59:24.104Z,4.90
2023-02-25T11:01:50.993Z,5.10
2023-02-25T11:04:19.358Z,5.20
2023-02-25T11:06:46.319Z,5.20
2023-02-25T11:09:12.881Z,5.30
2023-02-25T11:11:52.373Z,5.50
2023-02-25T11:14:19.087Z,5.70
2023-02-25T11:16:46.316Z,5.70
2023-02-25T11:19:18.731Z,5.70
2023-02-25T11:21:45.707Z,5.70
2023-02-25T11:24:15.239Z,5.90
2023-02-25T11:26:45.980Z,6.10
2023-02-25T11:29:12.509Z,5.90
2023-02-25T11:31:40.839Z,6.00
2023-02-25T11:34:35.275Z,6.00
2023-02-25T11:37:20.748Z,6.30
2023-02-25T11:39:54.745Z,6.30
2023-02-25T11:42:25.828Z,6.40
2023-02-25T11:45:01.427Z,6.30
2023-02-25T11:47:32.516Z,6.60
2023-02-25T11:50:17.752Z,6.60
2023-02-25T11:52:46.585Z,6.50
2023-02-25T11:55:25.027Z,6.70
2023-02-25T11:57:51.557Z,6.80
2023-02-25T12:00:21.157Z,6.80
2023-02-25T12:02:53.799Z,6.90
2023-02-25T12:05:39.210Z,6.90
2023-02-25T12:08:24.686Z,6.90
2023-02-25T12:11:03.742Z,7.10
2023-02-25T12:13:30.333Z,7.10
2023-02-25T12:15:56.912Z,7.20
2023-02-25T12:18:42.148Z,7.40
2023-02-25T12:21:21.057Z,7.30
2023-02-25T12:24:06.480Z,7.40
2023-02-25T12:26:41.068Z,7.30
2023-02-25T12:29:38.095Z,7.40
2023-02-25T12:32:22.221Z,7.30
2023-02-25T12:34:48.855Z,7.20
2023-02-25T12:37:27.634Z,7.30
2023-02-25T12:40:04.269Z,7.40
2023-02-25T12:42:33.819Z,7.60
2023-02-25T12:45:03.487Z,7.50
2023-02-25T12:48:08.720Z,7.60
2023-02-25T12:50:54.089Z,7.60
2023-02-25T12:53:21.698Z,7.50
2023-02-25T12:55:55.379Z,7.70
2023-02-25T13:15:49.657Z,6.10
2023-02-25T13:18:39.299Z,6.00
2023-02-25T13:21:22.371Z,6.20
2023-02-25T13:23:58.929Z,6.30
2023-02-25T13:26:25.451Z,6.00
2023-02-25T13:29:12.244Z,6.10
2023-02-25T13:31:42.014Z,6.00
2023-02-25T13:34:26.775Z,6.00
2023-02-25T13:37:12.396Z,5.90
2023-02-25T13:40:14.461Z,6.10
2023-02-25T13:42:40.962Z,6.20
2023-02-25T13:45:26.499Z,6.20
2023-02-25T13:48:11.699Z,6.30
2023-02-25T13:50:56.888Z,5.90
2023-02-25T13:53:42.259Z,6.10
2023-02-25T13:56:08.814Z,6.10
2023-02-25T13:58:38.123Z,5.90
2023-02-25T14:01:40.358Z,6.20
2023-02-25T14:04:27.608Z,6.40
2023-02-25T14:07:11.920Z,6.40
2023-02-25T14:09:50.603Z,6.40
2023-02-25T14:12:29.495Z,6.30
2023-02-25T14:15:05.469Z,6.10
2023-02-25T14:18:04.568Z,6.10
2023-02-25T14:20:37.493Z,6.20
2023-02-25T14:23:23.992Z,6.30
2023-02-25T14:25:50.548Z,6.20
2023-02-25T14:28:35.628Z,6.50
2023-02-25T14:31:02.323Z,6.10
2023-02-25T14:33:31.976Z,6.30
2023-02-25T14:36:17.539Z,6.00
2023-02-25T14:39:02.680Z,6.10
2023-02-25T14:41:29.269Z,6.10
2023-02-25T14:43:59.812Z,6.10
2023-02-25T14:46:31.815Z,6.10
2023-02-25T14:49:04.834Z,6.20
2023-02-25T14:51:31.359Z,6.10
2023-02-25T14:54:16.622Z,6.00
2023-02-25T14:56:51.157Z,5.90
2023-02-25T14:59:21.546Z,6.00
2023-02-25T15:01:50.828Z,5.90
2023-02-25T15:04:28.864Z,6.00
2023-02-25T15:07:07.677Z,5.80
2023-02-25T15:09:34.638Z,5.90
2023-02-25T15:12:01.213Z,5.80
2023-02-25T15:14:43.178Z,5.50
2023-02-25T15:17:15.733Z,5.70
2023-02-25T15:19:42.261Z,5.70
2023-02-25T15:22:14.028Z,5.60
2023-02-25T15:24:41.234Z,5.60
2023-02-25T15:27:26.599Z,5.50
2023-02-25T15:30:00.628Z,5.50
2023-02-25T15:32:30.910Z,5.50
2023-02-25T15:34:57.585Z,5.30
2023-02-25T15:37:24.235Z,5.10
2023-02-25T15:39:53.547Z,5.30
2023-02-25T15:42:39.732Z,5.50
2023-02-25T15:45:27.041Z,5.50
2023-02-25T15:48:11.908Z,5.50
2023-02-25T15:50:41.716Z,5.60
2023-02-25T15:53:09.641Z,5.50
2023-02-25T15:55:37.847Z,5.20
2023-02-25T15:58:27.694Z,5.10
2023-02-25T16:01:00.326Z,5.10
2023-02-25T16:03:36.158Z,5.30
2023-02-25T16:06:20.082Z,5.20
2023-02-25T16:09:03.631Z,5.20
2023-02-25T16:11:31.146Z,5.30
2023-02-25T16:14:00.448Z,5.10
2023-02-25T16:16:28.847Z,5.20
2023-02-25T16:18:56.160Z,5.00
2023-02-25T16:21:45.265Z,5.00
2023-02-25T16:24:12.830Z,4.80
2023-02-25T16:26:48.256Z,4.80
2023-02-25T16:29:25.723Z,4.90
2023-02-25T16:31:55.459Z,4.60
2023-02-25T16:34:22.833Z,4.80
2023-02-25T16:37:04.671Z,4.90
2023-02-25T16:39:31.546Z,4.80
2023-02-25T16:42:24.658Z,4.90
2023-02-25T16:45:02.071Z,4.70
2023-02-25T16:47:36.612Z,5.00
2023-02-25T16:50:04.666Z,4.80
2023-02-25T16:52:33.410Z,4.90
2023-02-25T16:55:01.332Z,4.70
2023-02-25T16:57:30.431Z,4.20
2023-02-25T17:00:06.119Z,4.30
2023-02-25T17:02:44.361Z,4.10
2023-02-25T17:05:21.669Z,3.90
2023-02-25T17:07:53.214Z,3.50
2023-02-25T17:10:24.099Z,3.80
2023-02-25T17:12:50.662Z,4.10
2023-02-25T17:15:27.280Z,3.90
2023-02-25T17:18:14.071Z,4.10
2023-02-25T17:20:41.140Z,4.20
2023-02-25T17:23:09.211Z,4.10
2023-02-25T17:25:43.055Z,4.30
2023-02-25T17:28:21.658Z,4.00
2023-02-25T17:30:53.349Z,4.20
2023-02-25T17:33:26.316Z,4.10
2023-02-25T17:35:55.610Z,4.20
2023-02-25T17:38:25.464Z,4.20
2023-02-25T17:40:55.082Z,4.20
2023-02-25T17:43:23.813Z,4.30
2023-02-25T17:45:53.208Z,4.10
2023-02-25T17:48:32.983Z,4.10
2023-02-25T17:51:00.966Z,4.10
2023-02-25T17:53:42.502Z,4.10
2023-02-25T17:56:17.403Z,4.10
2023-02-25T17:58:46.927Z,4.20
2023-02-25T18:01:32.518Z,4.00
2023-02-25T18:04:05.095Z,3.90
2023-02-25T18:06:37.989Z,3.90
2023-02-25T18:09:05.021Z,3.90
2023-02-25T18:11:38.949Z,3.70
2023-02-25T18:14:23.081Z,3.70
2023-02-25T18:16:53.328Z,4.00
2023-02-25T18:19:27.711Z,4.00
2023-02-25T18:21:54.763Z,3.80
2023-02-25T18:24:24.756Z,3.70
2023-02-25T18:27:29.174Z,3.70
2023-02-25T18:30:21.197Z,3.90
2023-02-25T18:32:47.852Z,3.80
2023-02-25T18:35:15.087Z,3.70
2023-02-25T18:37:41.885Z,3.60
2023-02-25T18:40:14.804Z,3.50
2023-02-25T18:42:41.437Z,3.70
2023-02-25T18:45:15.323Z,3.70
2023-02-25T18:47:41.901Z,3.60
2023-02-25T18:50:09.782Z,3.60
2023-02-25T18:52:36.431Z,3.60
2023-02-25T18:55:03.131Z,3.50
2023-02-25T18:57:29.818Z,3.60
2023-02-25T18:59:58.900Z,3.60
2023-02-25T19:02:28.299Z,3.50
2023-02-25T19:04:57.837Z,3.60
2023-02-25T19:07:32.889Z,3.60
2023-02-25T19:09:59.445Z,3.20
2023-02-25T19:12:27.908Z,3.40
2023-02-25T19:15:05.050Z,3.20
2023-02-25T19:17:34.082Z,3.40
2023-02-25T19:20:01.148Z,3.40
2023-02-25T19:22:30.737Z,3.50
2023-02-25T19:24:57.355Z,3.50
2023-02-25T19:27:25.212Z,3.30
2023-02-25T19:29:52.758Z,3.00
2023-02-25T19:32:19.508Z,3.10
2023-02-25T19:34:46.390Z,3.30
2023-02-25T19:37:13.902Z,3.30
2023-02-25T19:39:41.298Z,3.00
2023-02-25T19:42:08.741Z,3.20
2023-02-25T19:44:38.255Z,3.20
2023-02-25T19:47:05.901Z,3.10
2023-02-25T19:49:35.096Z,3.00
2023-02-25T19:52:01.627Z,2.90
2023-02-25T19:54:28.176Z,2.90
2023-02-25T19:56:54.732Z,3.00
2023-02-25T19:59:21.610Z,3.00
2023-02-25T20:01:50.571Z,3.00
2023-02-25T20:04:17.152Z,2.90
2023-02-25T20:06:46.102Z,2.90
2023-02-25T20:09:12.715Z,2.90
2023-02-25T20:11:39.345Z,3.00
2023-02-25T20:14:06.137Z,2.90
2023-02-25T20:16:34.311Z,2.80
2023-02-25T20:19:00.938Z,2.80
2023-02-25T20:21:31.321Z,2.80
2023-02-25T20:23:58.958Z,2.80
2023-02-25T20:26:28.584Z,2.90
2023-02-25T20:28:57.559Z,3.00
2023-02-25T20:31:26.774Z,2.80
2023-02-25T20:33:55.879Z,2.80
2023-02-25T20:36:25.937Z,2.70
2023-02-25T20:38:57.456Z,2.80
2023-02-25T20:41:24.110Z,2.80
2023-02-25T20:43:50.881Z,2.80
2023-02-25T20:46:28.184Z,2.70
2023-02-25T20:48:55.257Z,2.70
2023-02-25T20:51:22.148Z,2.70
2023-02-25T20:53:48.848Z,2.30
2023-02-25T20:56:18.008Z,2.60
2023-02-25T20:58:44.631Z,2.50
2023-02-25T21:01:11.194Z,2.60
2023-02-25T21:03:37.765Z,2.40
2023-02-25T21:06:06.800Z,2.50
2023-02-25T21:08:34.783Z,2.40
2023-02-25T21:11:01.385Z,2.40
2023-02-25T21:13:27.910Z,2.40
2023-02-25T21:16:01.873Z,2.30
2023-02-25T21:18:33.525Z,2.30
2023-02-25T21:21:01.184Z,2.40
2023-02-25T21:23:28.158Z,2.20
2023-02-25T21:25:55.027Z,2.10
2023-02-25T21:28:22.265Z,2.30
2023-02-25T21:30:51.856Z,2.10
2023-02-25T21:33:19.003Z,2.00
2023-02-25T21:35:52.315Z,2.20
2023-02-25T21:38:21.302Z,2.10
2023-02-25T21:40:47.851Z,2.10
2023-02-25T21:43:14.910Z,2.20
2023-02-25T21:45:52.070Z,2.10
2023-02-25T21:48:18.662Z,1.90
2023-02-25T21:50:45.718Z,2.10
2023-02-25T21:53:12.327Z,2.20
2023-02-25T21:55:39.092Z,2.10
2023-02-25T21:58:05.656Z,2.00
2023-02-25T22:00:32.281Z,2.10
2023-02-25T22:03:01.001Z,1.90
2023-02-25T22:05:27.531Z,1.90
2023-02-25T22:07:54.071Z,1.90
2023-02-25T22:10:21.407Z,1.90
2023-02-25T22:12:48.754Z,2.00
2023-02-25T22:15:15.401Z,1.80
2023-02-25T22:17:44.404Z,1.90
2023-02-25T22:20:13.804Z,1.90
2023-02-25T22:22:40.693Z,1.90
2023-02-25T22:25:07.378Z,1.90
2023-02-25T22:27:33.950Z,1.90
2023-02-25T22:30:02.883Z,1.70
2023-02-25T22:32:29.788Z,1.90
2023-02-25T22:34:58.750Z,1.70
2023-02-25T22:37:25.410Z,1.50
2023-02-25T22:39:52.074Z,1.60
2023-02-25T22:42:18.641Z,1.70
2023-02-25T22:44:47.644Z,1.80
2023-02-25T22:47:16.614Z,1.60
2023-02-25T22:49:43.311Z,1.40
2023-02-25T22:52:09.856Z,1.60
2023-02-25T22:54:36.454Z,1.40
2023-02-25T22:57:03.087Z,1.60
2023-02-25T22:59:29.668Z,1.50
2023-02-25T23:01:59.391Z,1.50
2023-02-25T23:04:26.153Z,1.50
2023-02-25T23:06:54.122Z,1.40
2023-02-25T23:09:20.718Z,1.50
2023-02-25T23:11:49.670Z,1.60
2023-02-25T23:14:16.252Z,1.40
2023-02-25T23:16:43.992Z,1.50
2023-02-25T23:19:13.533Z,1.60
2023-02-25T23:21:40.124Z,1.50
2023-02-25T23:24:07.714Z,1.60
2023-02-25T23:26:38.888Z,1.60
2023-02-25T23:29:09.377Z,1.60
2023-02-25T23:31:37.432Z,1.60
2023-02-25T23:34:08.760Z,1.30
2023-02-25T23:36:39.276Z,1.60
2023-02-25T23:39:06.827Z,1.40
2023-02-25T23:41:34.028Z,1.50
2023-02-25T23:44:00.908Z,1.50
2023-02-25T23:46:31.443Z,1.60
2023-02-25T23:49:00.234Z,1.30
2023-02-25T23:51:29.120Z,1.40
2023-02-25T23:53:56.798Z,1.40
2023-02-25T23:56:24.098Z,1.60
2023-02-25T23:58:51.428Z,1.30
